Time;durP1;ratioP1;P1;durP2;ratioP2;P2;SDS_P1;SDS_P2;PMS_P1;PMS_P2;Temp;Humidity;BMP_temperature;BMP_pressure;BME280_temperature;BME280_humidity;BME280_pressure;Samples;Min_cycle;Max_cycle;Signal;HPM_P1;HPM_P2
2022/11/10 00:02:44;;;;;;;150.38;119.57;;;21.80;57.70;;;;;;4877561;55;21585;-42
2022/11/10 00:07:45;;;;;;;150.40;117.68;;;21.80;57.70;;;;;;4783132;55;21565;-49
2022/11/10 00:12:46;;;;;;;146.00;115.28;;;21.80;57.70;;;;;;4988561;55;21031;-43
2022/11/10 00:17:46;;;;;;;146.10;115.65;;;21.90;57.80;;;;;;4745606;55;21073;-47
2022/11/10 00:22:47;;;;;;;145.65;116.32;;;21.90;57.90;;;;;;4787853;55;21539;-46
2022/11/10 00:27:48;;;;;;;144.50;115.80;;;21.80;57.80;;;;;;4769402;55;21010;-41
2022/11/10 00:32:49;;;;;;;137.93;109.65;;;21.80;57.90;;;;;;5074797;55;21606;-39
2022/11/10 00:37:50;;;;;;;134.10;106.87;;;21.80;57.80;;;;;;5042747;55;21093;-43
2022/11/10 00:42:51;;;;;;;139.98;108.93;;;21.80;57.90;;;;;;5007580;55;21484;-44
2022/11/10 00:47:52;;;;;;;132.45;104.03;;;21.80;57.90;;;;;;4773651;55;21017;-46
2022/11/10 00:52:53;;;;;;;139.02;110.22;;;21.80;57.90;;;;;;4771023;55;21669;-41
2022/11/10 00:57:53;;;;;;;137.50;110.22;;;21.80;58.00;;;;;;4745297;59;21014;-46
2022/11/10 01:02:54;;;;;;;134.85;106.60;;;21.80;57.90;;;;;;4940019;55;21062;-34
2022/11/10 01:07:58;;;;;;;133.60;106.60;;;21.80;58.00;;;;;;4745365;59;21062;-42
2022/11/10 01:12:59;;;;;;;129.90;101.45;;;21.80;58.00;;;;;;4744794;59;21535;-36
2022/11/10 01:18:00;;;;;;;133.85;107.25;;;21.80;58.10;;;;;;4838991;55;21113;-44
2022/11/10 01:23:01;;;;;;;127.30;101.95;;;21.80;58.00;;;;;;4745371;59;21057;-49
2022/11/10 01:28:02;;;;;;;126.28;101.97;;;21.80;58.00;;;;;;4745336;57;21062;-38
2022/11/10 01:33:02;;;;;;;125.25;101.28;;;21.80;58.10;;;;;;4906721;55;21030;-45
2022/11/10 01:38:03;;;;;;;126.15;98.20;;;21.80;58.10;;;;;;4938312;55;21145;-45
2022/11/10 01:43:04;;;;;;;125.62;101.35;;;21.80;58.20;;;;;;5115742;55;21058;-42
2022/11/10 01:48:07;;;;;;;128.45;103.10;;;21.80;58.30;;;;;;4904342;55;21057;-33
2022/11/10 01:53:14;;;;;;;119.57;94.95;;;21.80;58.80;;;;;;4946315;55;21057;-42
2022/11/10 01:58:19;;;;;;;114.63;94.10;;;21.80;58.20;;;;;;4746535;55;21049;-43
2022/11/10 02:03:49;;;;;;;115.88;92.95;;;21.80;58.20;;;;;;4880387;55;21002;-34
2022/11/10 02:08:51;;;;;;;112.32;92.18;;;21.80;58.10;;;;;;4814891;55;21038;-39
2022/11/10 02:13:53;;;;;;;116.03;92.50;;;21.80;58.30;;;;;;4812817;55;21093;-46
2022/11/10 02:18:54;;;;;;;110.68;87.40;;;21.80;58.30;;;;;;4998679;55;21058;-43
2022/11/10 02:23:54;;;;;;;113.70;90.35;;;21.80;58.20;;;;;;4800653;55;21014;-41
2022/11/10 02:28:55;;;;;;;111.47;89.72;;;21.80;58.40;;;;;;4887231;55;21038;-40
2022/11/10 02:33:56;;;;;;;109.43;85.80;;;21.70;58.30;;;;;;4744323;59;21542;-42
2022/11/10 02:38:57;;;;;;;108.18;86.07;;;21.80;58.40;;;;;;4787222;55;21073;-45
2022/11/10 02:43:58;;;;;;;106.47;85.45;;;21.80;58.40;;;;;;4745282;59;21015;-49
2022/11/10 02:48:59;;;;;;;103.03;81.82;;;21.80;58.50;;;;;;5024747;55;20998;-48
2022/11/10 02:54:00;;;;;;;105.12;83.55;;;21.70;58.40;;;;;;4744712;55;21141;-44
2022/11/10 02:59:02;;;;;;;104.80;83.05;;;21.70;58.40;;;;;;4797321;55;21584;-39
2022/11/10 03:04:03;;;;;;;99.57;80.78;;;21.70;58.40;;;;;;4921642;55;21476;-42
2022/11/10 03:09:04;;;;;;;104.80;82.97;;;21.80;58.40;;;;;;4745580;59;21002;-40
2022/11/10 03:14:04;;;;;;;100.93;79.12;;;21.70;58.40;;;;;;4832348;55;21034;-40
2022/11/10 03:19:05;;;;;;;102.07;80.62;;;21.70;58.50;;;;;;4773505;55;21571;-40
2022/11/10 03:24:06;;;;;;;98.18;79.93;;;21.70;58.50;;;;;;4783516;55;21551;-44
2022/11/10 03:29:07;;;;;;;99.80;80.03;;;21.70;58.60;;;;;;4825633;55;21101;-43
2022/11/10 03:34:08;;;;;;;101.00;79.18;;;21.70;58.50;;;;;;5077325;55;21054;-39
2022/11/10 03:39:09;;;;;;;92.90;75.57;;;21.70;58.50;;;;;;4745522;55;21030;-44
2022/11/10 03:44:09;;;;;;;93.80;76.28;;;21.70;58.40;;;;;;4944879;55;21030;-43
2022/11/10 03:49:10;;;;;;;92.50;71.80;;;21.70;58.60;;;;;;4905737;55;21050;-42
2022/11/10 03:54:11;;;;;;;94.40;71.75;;;21.70;58.70;;;;;;4744654;56;20998;-44
2022/11/10 03:59:12;;;;;;;91.25;73.05;;;21.70;58.60;;;;;;4876456;55;21050;-35
2022/11/10 04:10:49;;;;;;;87.10;70.75;;;21.70;58.70;;;;;;4803236;55;21038;-44
2022/11/10 04:15:51;;;;;;;87.30;69.97;;;21.70;58.70;;;;;;4745249;59;21569;-38
2022/11/10 04:20:54;;;;;;;83.85;68.62;;;21.70;58.70;;;;;;4745584;59;21058;-41
2022/11/10 04:31:20;;;;;;;79.78;64.18;;;21.70;58.70;;;;;;4902997;55;21097;-34
2022/11/10 04:36:23;;;;;;;82.12;66.07;;;21.70;58.80;;;;;;4909499;55;21002;-42
2022/11/10 04:41:26;;;;;;;79.93;63.33;;;21.70;58.80;;;;;;4850061;55;20994;-35
2022/11/10 04:46:39;;;;;;;81.80;65.22;;;21.70;59.60;;;;;;5073246;55;20997;-31
2022/11/10 04:51:39;;;;;;;81.22;65.65;;;21.70;59.00;;;;;;4745324;59;21512;-31
2022/11/10 04:56:40;;;;;;;79.20;62.55;;;21.60;59.00;;;;;;4745327;59;21054;-43
2022/11/10 05:01:41;;;;;;;78.70;62.20;;;21.70;59.00;;;;;;4940033;55;21029;-33
2022/11/10 05:06:42;;;;;;;77.80;60.95;;;21.60;59.00;;;;;;4745401;59;21109;-42
2022/11/10 05:11:42;;;;;;;74.15;61.17;;;21.60;59.00;;;;;;4744490;59;21691;-42
2022/11/10 05:16:43;;;;;;;70.82;57.42;;;21.70;59.80;;;;;;4897449;55;21065;-42
2022/11/10 05:21:44;;;;;;;72.50;58.47;;;21.60;59.20;;;;;;4783195;55;21053;-44
2022/11/10 05:26:45;;;;;;;73.85;58.50;;;21.60;59.30;;;;;;4758617;55;21088;-49
2022/11/10 05:31:46;;;;;;;72.15;58.60;;;21.70;59.50;;;;;;5230405;55;21072;-47
2022/11/10 05:36:46;;;;;;;72.40;58.83;;;21.60;59.40;;;;;;4836605;55;20993;-46
2022/11/10 05:41:47;;;;;;;72.07;57.75;;;21.60;59.30;;;;;;4747538;55;21074;-44
2022/11/10 05:46:48;;;;;;;72.28;57.85;;;21.60;59.40;;;;;;4880076;55;21544;-40
2022/11/10 05:51:49;;;;;;;69.32;56.72;;;21.70;59.60;;;;;;4744680;59;21500;-43
2022/11/10 05:56:49;;;;;;;68.30;55.22;;;21.70;59.50;;;;;;4866349;55;21010;-42
2022/11/10 06:01:50;;;;;;;68.47;54.53;;;21.60;59.50;;;;;;4765087;55;21030;-41
2022/11/10 06:06:51;;;;;;;67.50;54.75;;;21.60;59.50;;;;;;4812621;55;21076;-44
2022/11/10 06:11:52;;;;;;;73.25;57.08;;;21.60;59.50;;;;;;4865488;55;21121;-39
2022/11/10 06:16:53;;;;;;;67.07;54.92;;;21.60;59.60;;;;;;4745334;59;21069;-45
2022/11/10 06:21:53;;;;;;;65.75;53.45;;;21.70;59.70;;;;;;4923433;55;21133;-48
2022/11/10 06:26:54;;;;;;;69.20;54.90;;;21.60;59.70;;;;;;4813724;55;21002;-44
2022/11/10 06:31:56;;;;;;;69.25;56.20;;;21.60;59.60;;;;;;4805144;55;21563;-35
2022/11/10 06:36:57;;;;;;;67.72;54.40;;;21.60;59.60;;;;;;4745332;56;21010;-38
2022/11/10 06:41:57;;;;;;;66.15;54.63;;;21.60;59.60;;;;;;4834238;55;21058;-48
2022/11/10 06:46:58;;;;;;;67.18;53.40;;;21.70;59.80;;;;;;4780835;55;21101;-37
2022/11/10 06:51:59;;;;;;;65.30;54.10;;;21.60;59.70;;;;;;4754659;55;21014;-41
2022/11/10 06:57:00;;;;;;;69.10;54.83;;;21.60;59.70;;;;;;4796750;55;21536;-44
2022/11/10 07:02:00;;;;;;;67.30;54.03;;;21.70;59.70;;;;;;5014072;55;21077;-43
2022/11/10 07:07:01;;;;;;;73.22;56.97;;;21.60;59.80;;;;;;4826705;55;21017;-44
2022/11/10 07:12:03;;;;;;;69.28;55.92;;;21.60;59.80;;;;;;4778175;55;21026;-35
2022/11/10 07:17:04;;;;;;;63.60;53.10;;;21.60;59.70;;;;;;4775664;55;21018;-49
2022/11/10 07:22:06;;;;;;;69.45;55.30;;;21.60;59.70;;;;;;4991937;55;20998;-41
2022/11/10 07:27:07;;;;;;;66.07;53.25;;;21.60;59.90;;;;;;5055506;55;21054;-41
2022/11/10 07:32:08;;;;;;;69.53;56.03;;;21.60;59.80;;;;;;4860022;55;21026;-46
2022/11/10 07:37:09;;;;;;;64.53;52.30;;;21.60;59.90;;;;;;4837223;55;21077;-48
2022/11/10 07:42:10;;;;;;;70.07;56.47;;;21.60;59.90;;;;;;4831146;55;21069;-39
2022/11/10 07:47:11;;;;;;;71.90;56.53;;;21.60;59.90;;;;;;4745494;59;20994;-41
2022/11/10 07:52:12;;;;;;;69.57;54.22;;;21.70;59.80;;;;;;4763488;55;21584;-37
2022/11/10 07:57:12;;;;;;;66.20;53.30;;;21.70;60.00;;;;;;5051876;55;21033;-42
2022/11/10 08:02:13;;;;;;;72.90;57.25;;;21.60;59.90;;;;;;4825134;55;20998;-40
2022/11/10 08:07:14;;;;;;;70.62;56.83;;;21.60;59.90;;;;;;5081146;55;21128;-46
2022/11/10 08:12:15;;;;;;;66.85;55.28;;;21.60;59.80;;;;;;4765432;55;21029;-40
2022/11/10 08:17:16;;;;;;;75.03;59.05;;;21.70;59.70;;;;;;4744477;59;21066;-46
2022/11/10 08:22:16;;;;;;;76.90;59.70;;;21.70;59.40;;;;;;4773464;55;21021;-41
2022/11/10 08:27:17;;;;;;;78.78;62.25;;;21.90;59.70;;;;;;4744660;59;21062;-45
2022/11/10 08:32:18;;;;;;;82.20;60.78;;;21.80;59.50;;;;;;4815365;55;21026;-40
2022/11/10 08:37:19;;;;;;;82.72;64.30;;;21.90;60.20;;;;;;4968195;55;21472;-40
2022/11/10 08:42:20;;;;;;;87.15;63.30;;;21.90;59.40;;;;;;4745461;59;21468;-35
2022/11/10 08:47:20;;;;;;;83.93;64.25;;;22.00;59.40;;;;;;4745089;59;21005;-37
2022/11/10 08:52:22;;;;;;;88.78;64.00;;;22.00;59.60;;;;;;4761056;55;21026;-36
2022/11/10 08:57:22;;;;;;;85.20;64.53;;;22.00;59.80;;;;;;4872990;55;21089;-46
2022/11/10 09:02:23;;;;;;;85.68;63.97;;;22.00;59.80;;;;;;4744860;55;21073;-42
2022/11/10 09:07:24;;;;;;;91.90;67.72;;;22.10;59.90;;;;;;4744740;59;21524;-44
2022/11/10 09:12:25;;;;;;;91.07;67.35;;;22.20;59.90;;;;;;4806220;55;21137;-45
2022/11/10 09:17:25;;;;;;;91.07;68.03;;;22.10;60.10;;;;;;4744503;59;21002;-38
2022/11/10 09:22:27;;;;;;;88.85;67.80;;;22.10;60.30;;;;;;4800843;55;20998;-42
2022/11/10 09:27:27;;;;;;;90.25;69.82;;;22.20;60.40;;;;;;4818089;55;21049;-45
2022/11/10 09:32:30;;;;;;;92.57;70.10;;;22.20;60.30;;;;;;4880915;55;21086;-43
2022/11/10 09:37:31;;;;;;;93.47;72.82;;;22.20;60.20;;;;;;4788117;55;21002;-47
2022/11/10 09:42:39;;;;;;;93.45;72.45;;;22.20;60.20;;;;;;4742536;59;21623;-51
2022/11/10 09:48:03;;;;;;;;;;;22.20;60.00;;;;;;4743945;56;20982;-47
2022/11/10 09:53:09;;;;;;;104.18;79.28;;;22.20;60.20;;;;;;4756176;55;20052;-44
2022/11/10 09:58:13;;;;;;;105.87;80.15;;;22.20;60.40;;;;;;4852808;55;20998;-44
2022/11/10 10:03:22;;;;;;;108.45;82.78;;;22.20;60.70;;;;;;4791357;55;20982;-42
2022/11/10 10:08:45;;;;;;;107.80;81.85;;;22.20;61.10;;;;;;4745002;59;21562;-37
2022/11/10 10:17:04;;;;;;;106.85;80.65;;;22.20;61.10;;;;;;4869263;55;21093;-36
2022/11/10 10:29:12;;;;;;;111.80;84.30;;;22.20;61.50;;;;;;4861890;55;21006;-42
2022/11/10 10:34:18;;;;;;;114.20;84.28;;;22.20;61.90;;;;;;4777009;55;21042;-40
2022/11/10 10:39:45;;;;;;;117.37;84.25;;;22.40;62.40;;;;;;4776607;55;20986;-42
2022/11/10 10:45:31;;;;;;;117.72;87.10;;;22.30;62.60;;;;;;4770208;55;21077;-42
2022/11/10 10:50:35;;;;;;;113.80;85.90;;;22.40;63.40;;;;;;4860164;55;21522;-37
2022/11/10 10:55:37;;;;;;;118.00;89.18;;;22.40;64.20;;;;;;4747159;55;21038;-41
2022/11/10 11:00:45;;;;;;;124.30;91.45;;;22.50;65.50;;;;;;4763331;55;20994;-36
2022/11/10 11:12:34;;;;;;;119.97;90.15;;;22.40;52.40;;;;;;4744735;59;20981;-44
2022/11/10 11:17:36;;;;;;;129.10;94.97;;;22.40;53.10;;;;;;4749078;55;21002;-40
2022/11/10 11:25:30;;;;;;;131.82;96.82;;;22.40;53.20;;;;;;4745308;55;21472;-37
2022/11/10 11:31:08;;;;;;;140.93;98.97;;;22.50;53.40;;;;;;4749305;55;21061;-46
2022/11/10 11:36:59;;;;;;;132.18;94.18;;;22.50;53.60;;;;;;4745165;59;21457;-44
2022/11/10 11:44:11;;;;;;;134.48;97.35;;;22.50;53.70;;;;;;4782113;55;20986;-39
2022/11/10 11:50:13;;;;;;;135.18;98.50;;;22.50;53.80;;;;;;4978053;55;21697;-46
2022/11/10 11:55:31;;;;;;;136.70;97.43;;;22.50;53.90;;;;;;4751464;55;21026;-42
2022/11/10 12:01:03;;;;;;;132.18;97.28;;;22.50;54.00;;;;;;4802670;55;21080;-40
2022/11/10 12:06:41;;;;;;;141.10;99.45;;;22.50;54.00;;;;;;4745576;59;21107;-33
2022/11/10 12:15:19;;;;;;;134.75;99.43;;;22.50;54.10;;;;;;4745005;59;21151;-43
2022/11/10 12:22:18;;;;;;;129.43;93.40;;;22.50;54.30;;;;;;4745345;55;21045;-43
2022/11/10 12:27:34;;;;;;;121.37;90.25;;;22.50;54.60;;;;;;4744393;55;21003;-42
2022/11/10 12:34:11;;;;;;;126.57;92.80;;;22.50;54.00;;;;;;4744825;59;20970;-38
2022/11/10 12:39:27;;;;;;;132.52;96.05;;;22.50;53.90;;;;;;4788735;55;21058;-41
2022/11/10 12:44:48;;;;;;;129.05;94.55;;;22.40;53.70;;;;;;4855670;55;21053;-41
2022/11/10 12:51:12;;;;;;;125.68;94.62;;;22.40;53.60;;;;;;4799802;55;20989;-38
2022/11/10 12:56:41;;;;;;;125.75;92.60;;;22.40;53.60;;;;;;4745404;59;20997;-33
2022/11/10 13:01:44;;;;;;;117.13;88.78;;;22.40;53.60;;;;;;4788412;55;21014;-31
2022/11/10 13:07:04;;;;;;;120.00;87.90;;;22.40;53.50;;;;;;4750092;55;21042;-31
2022/11/10 13:12:26;;;;;;;101.43;73.07;;;22.30;52.40;;;;;;4744644;59;21106;-33
2022/11/10 13:17:53;;;;;;;103.62;68.95;;;22.30;51.20;;;;;;4745120;59;21547;-35
2022/11/10 13:22:54;;;;;;;102.62;67.28;;;22.20;50.70;;;;;;4745353;59;21590;-30
2022/11/10 13:27:54;;;;;;;96.95;69.12;;;22.20;50.20;;;;;;4908665;55;21085;-46
2022/11/10 13:33:29;;;;;;;106.30;77.53;;;22.20;50.40;;;;;;4744041;56;21014;-41
2022/11/10 13:38:38;;;;;;;101.30;73.22;;;22.20;50.50;;;;;;4765893;55;21473;-40
2022/11/10 13:43:53;;;;;;;95.30;69.97;;;22.10;50.70;;;;;;4863163;55;21457;-41
2022/11/10 13:49:37;;;;;;;98.47;72.00;;;22.20;51.00;;;;;;4799705;55;21006;-46
2022/11/10 13:57:26;;;;;;;92.57;69.07;;;22.10;51.20;;;;;;4771546;55;21005;-47
2022/11/10 14:03:03;;;;;;;89.87;67.40;;;22.10;51.40;;;;;;4811812;55;21013;-45
2022/11/10 14:08:17;;;;;;;86.45;65.40;;;22.10;51.70;;;;;;4745540;59;20981;-45
2022/11/10 14:13:46;;;;;;;86.63;65.70;;;22.10;51.80;;;;;;4744836;59;21160;-45
2022/11/10 14:19:37;;;;;;;90.47;66.32;;;22.10;51.80;;;;;;5148537;55;21121;-42
2022/11/10 14:25:13;;;;;;;90.65;64.65;;;22.10;51.90;;;;;;4843221;55;21057;-50
2022/11/10 14:30:32;;;;;;;84.60;63.03;;;22.10;52.00;;;;;;5003137;55;20998;-45
2022/11/10 14:35:43;;;;;;;88.30;64.72;;;22.00;52.00;;;;;;4795097;55;21460;-41
2022/11/10 14:40:45;;;;;;;83.70;63.75;;;22.10;52.20;;;;;;4936822;55;20990;-43
2022/11/10 14:45:51;;;;;;;80.43;59.75;;;22.00;52.20;;;;;;4854066;55;20994;-45
2022/11/10 14:50:53;;;;;;;79.63;61.70;;;22.00;52.20;;;;;;4778704;55;21559;-46
2022/11/10 14:55:55;;;;;;;85.25;61.25;;;22.00;52.30;;;;;;4757524;55;20990;-41
2022/11/10 15:00:56;;;;;;;80.50;60.58;;;22.00;52.30;;;;;;4839176;55;21062;-44
2022/11/10 15:05:57;;;;;;;83.20;61.85;;;22.00;52.50;;;;;;4951695;55;20986;-44
2022/11/10 15:10:58;;;;;;;82.28;57.35;;;22.00;52.50;;;;;;4768555;55;21033;-44
2022/11/10 15:16:24;;;;;;;83.43;59.58;;;22.00;52.50;;;;;;4789414;55;21001;-42
2022/11/10 15:21:32;;;;;;;78.65;59.22;;;22.00;52.50;;;;;;4745504;59;21078;-46
2022/11/10 15:26:38;;;;;;;81.55;57.92;;;22.00;52.60;;;;;;4948785;55;21564;-48
2022/11/10 15:31:43;;;;;;;74.68;57.03;;;22.00;52.60;;;;;;4744791;59;21499;-48
2022/11/10 15:36:43;;;;;;;76.20;58.75;;;22.00;52.70;;;;;;4970129;55;21006;-46
2022/11/10 15:41:49;;;;;;;76.65;56.83;;;22.00;52.70;;;;;;4881967;55;21571;-43
2022/11/10 15:46:52;;;;;;;74.07;56.53;;;22.00;52.80;;;;;;4745585;59;20982;-38
2022/11/10 15:51:59;;;;;;;72.90;55.75;;;22.00;52.90;;;;;;4744873;59;21030;-48
2022/11/10 15:57:00;;;;;;;75.18;55.53;;;22.00;52.90;;;;;;4983179;55;21030;-36
2022/11/10 16:02:01;;;;;;;74.32;56.22;;;22.00;52.90;;;;;;4795701;55;21074;-48
2022/11/10 16:07:02;;;;;;;72.75;54.53;;;21.90;52.90;;;;;;4745259;59;21101;-44
2022/11/10 16:12:03;;;;;;;74.25;56.78;;;22.00;53.10;;;;;;4815228;55;21141;-46
2022/11/10 16:17:07;;;;;;;73.10;55.28;;;22.00;53.00;;;;;;5002495;55;20986;-43
2022/11/10 16:22:11;;;;;;;73.35;54.72;;;22.00;53.00;;;;;;4787628;55;20998;-39
2022/11/10 16:27:13;;;;;;;71.25;54.65;;;22.00;53.10;;;;;;4744858;59;21057;-45
2022/11/10 16:32:14;;;;;;;71.03;55.28;;;22.00;53.10;;;;;;4855827;55;21009;-40
2022/11/10 16:37:15;;;;;;;69.47;53.83;;;22.00;53.20;;;;;;4817816;55;21002;-42
2022/11/10 16:42:16;;;;;;;72.15;53.83;;;22.00;53.20;;;;;;4763405;55;21074;-49
2022/11/10 16:47:18;;;;;;;70.22;53.83;;;22.00;53.20;;;;;;4884324;55;21638;-38
2022/11/10 16:52:21;;;;;;;73.05;54.80;;;22.00;53.30;;;;;;4744752;56;21487;-43
2022/11/10 16:57:22;;;;;;;68.43;54.13;;;22.00;53.40;;;;;;4924168;55;21484;-45
2022/11/10 17:02:30;;;;;;;67.72;53.95;;;21.90;53.30;;;;;;4883837;55;21116;-38
2022/11/10 17:07:33;;;;;;;65.47;52.70;;;22.00;53.40;;;;;;4745345;59;21476;-46
2022/11/10 17:12:34;;;;;;;67.72;53.33;;;21.90;53.40;;;;;;4744685;59;21489;-42
2022/11/10 17:17:35;;;;;;;73.45;56.13;;;21.90;53.40;;;;;;4773288;55;21061;-40
2022/11/10 17:22:36;;;;;;;65.85;53.33;;;21.90;53.40;;;;;;4769488;55;21065;-43
2022/11/10 17:27:36;;;;;;;66.68;51.35;;;21.90;53.40;;;;;;4852923;55;21551;-39
2022/11/10 17:32:37;;;;;;;68.55;54.78;;;21.90;53.50;;;;;;4744517;59;21094;-48
2022/11/10 17:37:40;;;;;;;67.22;53.78;;;21.90;53.50;;;;;;4745404;59;21001;-46
2022/11/10 17:42:41;;;;;;;67.22;53.70;;;21.90;53.60;;;;;;4783555;55;21472;-47
2022/11/10 17:47:42;;;;;;;69.32;54.45;;;21.90;53.70;;;;;;4907901;55;21002;-45
2022/11/10 17:52:43;;;;;;;75.97;56.22;;;21.90;53.60;;;;;;4905478;55;21018;-46
2022/11/10 17:57:45;;;;;;;68.40;53.22;;;21.90;53.70;;;;;;4744406;59;21054;-48
2022/11/10 18:02:47;;;;;;;68.80;54.08;;;21.90;53.70;;;;;;4874052;55;21069;-50
2022/11/10 18:07:51;;;;;;;68.40;54.10;;;21.90;53.70;;;;;;4745062;59;21022;-46
2022/11/10 18:12:52;;;;;;;70.50;54.60;;;21.90;53.80;;;;;;4842385;55;21030;-42
2022/11/10 18:17:55;;;;;;;71.85;53.80;;;21.90;53.80;;;;;;4841960;55;21062;-48
2022/11/10 18:22:56;;;;;;;69.57;53.35;;;21.90;53.80;;;;;;4895613;55;21543;-44
2022/11/10 18:27:57;;;;;;;65.75;53.00;;;21.90;53.90;;;;;;4980998;55;21061;-43
2022/11/10 18:33:00;;;;;;;67.25;52.50;;;21.90;53.90;;;;;;4744619;59;21121;-43
2022/11/10 18:38:01;;;;;;;68.30;54.00;;;21.90;53.90;;;;;;4745706;55;21050;-43
2022/11/10 18:43:02;;;;;;;67.18;54.05;;;21.90;54.00;;;;;;4792076;55;21053;-45
2022/11/10 18:48:06;;;;;;;65.30;51.55;;;21.90;54.00;;;;;;4877459;55;20998;-36
2022/11/10 18:53:07;;;;;;;64.43;51.75;;;21.90;54.00;;;;;;4782034;55;21010;-45
2022/11/10 18:58:08;;;;;;;66.35;52.55;;;21.90;54.00;;;;;;4800898;55;21073;-38
2022/11/10 19:03:09;;;;;;;66.87;53.60;;;21.90;54.10;;;;;;4744737;59;21021;-41
2022/11/10 19:08:10;;;;;;;63.00;51.42;;;21.90;54.10;;;;;;4859840;55;21496;-47
2022/11/10 19:13:10;;;;;;;63.65;48.95;;;21.90;54.10;;;;;;4765006;55;21109;-48
2022/11/10 19:18:11;;;;;;;65.10;53.55;;;21.90;54.20;;;;;;4913039;55;21054;-46
2022/11/10 19:23:12;;;;;;;68.57;52.30;;;21.90;54.20;;;;;;4826661;55;21535;-46
2022/11/10 19:28:13;;;;;;;65.75;51.28;;;21.90;54.20;;;;;;4782683;55;21052;-48
2022/11/10 19:33:14;;;;;;;63.00;50.38;;;21.90;54.30;;;;;;4976968;55;21054;-45
2022/11/10 19:38:14;;;;;;;62.10;49.38;;;21.90;54.30;;;;;;4745149;59;21627;-45
2022/11/10 19:43:15;;;;;;;65.00;52.50;;;21.90;54.30;;;;;;4773038;55;21109;-42
2022/11/10 19:48:16;;;;;;;61.28;50.33;;;21.90;54.40;;;;;;4793962;55;21049;-44
2022/11/10 19:53:17;;;;;;;66.00;51.97;;;21.90;54.30;;;;;;4857048;55;21009;-44
2022/11/10 19:58:18;;;;;;;60.38;50.12;;;22.10;54.50;;;;;;4868920;55;21058;-49
2022/11/10 20:03:18;;;;;;;68.57;53.50;;;21.90;54.40;;;;;;4745412;59;21485;-38
2022/11/10 20:08:19;;;;;;;65.20;52.28;;;21.90;54.50;;;;;;4814817;55;21061;-46
2022/11/10 20:13:20;;;;;;;61.15;49.78;;;21.90;54.50;;;;;;5178097;55;21102;-41
2022/11/10 20:18:21;;;;;;;64.40;50.33;;;21.90;54.50;;;;;;4952117;55;21101;-49
2022/11/10 20:23:22;;;;;;;64.05;51.90;;;21.90;54.60;;;;;;4830186;55;21479;-38
2022/11/10 20:28:22;;;;;;;62.30;50.72;;;21.90;54.60;;;;;;4809833;55;21045;-40
2022/11/10 20:33:23;;;;;;;65.25;51.92;;;21.90;54.60;;;;;;4807884;55;21038;-42
2022/11/10 20:38:24;;;;;;;61.47;48.30;;;21.90;54.50;;;;;;4942640;55;21046;-43
2022/11/10 20:43:25;;;;;;;60.90;50.40;;;21.90;54.60;;;;;;4851780;55;21065;-40
2022/11/10 20:48:28;;;;;;;60.35;48.47;;;21.90;54.60;;;;;;4775675;55;21455;-44
2022/11/10 20:53:29;;;;;;;66.53;52.65;;;21.90;54.70;;;;;;5230741;55;21054;-41
2022/11/10 20:58:30;;;;;;;60.70;49.15;;;22.00;54.70;;;;;;4875773;55;20989;-47
2022/11/10 21:03:32;;;;;;;63.90;50.70;;;21.80;54.70;;;;;;4923794;55;21524;-48
2022/11/10 21:08:33;;;;;;;62.70;51.00;;;22.10;54.80;;;;;;4830238;55;20998;-41
2022/11/10 21:13:35;;;;;;;63.13;50.60;;;21.80;54.70;;;;;;4833471;55;21038;-43
2022/11/10 21:18:36;;;;;;;61.75;49.70;;;21.90;54.80;;;;;;4933237;55;20995;-40
2022/11/10 21:23:38;;;;;;;61.92;50.65;;;21.90;54.80;;;;;;4818522;55;21110;-39
2022/11/10 21:28:39;;;;;;;63.20;50.50;;;21.90;54.80;;;;;;5010225;55;21489;-48
2022/11/10 21:33:40;;;;;;;62.45;50.97;;;21.90;54.80;;;;;;4744568;59;21014;-44
2022/11/10 21:38:45;;;;;;;62.00;51.05;;;21.90;54.80;;;;;;4787165;55;21465;-42
2022/11/10 21:43:45;;;;;;;61.20;50.63;;;21.90;54.90;;;;;;4991596;55;20998;-42
2022/11/10 21:48:48;;;;;;;63.00;50.90;;;21.90;54.90;;;;;;4884458;55;20990;-39
2022/11/10 21:53:49;;;;;;;60.00;49.80;;;21.80;54.80;;;;;;5110680;55;21077;-44
2022/11/10 21:58:50;;;;;;;58.97;48.30;;;21.80;54.90;;;;;;4862154;55;21045;-44
2022/11/10 22:03:51;;;;;;;63.55;49.55;;;21.80;54.90;;;;;;4785596;55;21612;-43
2022/11/10 22:08:52;;;;;;;59.28;47.95;;;21.80;54.90;;;;;;4904916;55;21090;-45
2022/11/10 22:19:12;;;;;;;57.62;46.80;;;21.80;54.90;;;;;;4745361;55;21066;-39
2022/11/10 22:24:21;;;;;;;57.97;47.58;;;21.90;55.00;;;;;;4826296;55;21010;-33
2022/11/10 22:29:27;;;;;;;57.58;47.20;;;21.80;54.90;;;;;;4858587;55;21651;-40
2022/11/10 22:34:28;;;;;;;57.65;47.58;;;21.80;54.90;;;;;;4759672;55;21049;-40
2022/11/10 22:44:48;;;;;;;56.85;45.65;;;21.80;54.90;;;;;;4745287;55;21093;-42
2022/11/10 22:49:49;;;;;;;57.72;45.15;;;21.80;55.00;;;;;;4897662;55;21527;-37
2022/11/10 22:54:50;;;;;;;53.42;44.42;;;22.00;55.10;;;;;;4865461;55;21550;-48
2022/11/10 22:59:51;;;;;;;53.87;43.40;;;21.80;55.00;;;;;;4795522;55;21688;-35
2022/11/10 23:04:52;;;;;;;52.95;43.47;;;21.80;55.70;;;;;;4777867;55;21057;-42
2022/11/10 23:09:53;;;;;;;54.13;44.00;;;21.80;55.10;;;;;;4797213;55;21017;-43
2022/11/10 23:14:54;;;;;;;54.97;44.83;;;21.80;55.10;;;;;;4744457;59;21002;-45
2022/11/10 23:19:55;;;;;;;52.88;43.00;;;21.80;55.10;;;;;;4745024;55;21619;-42
2022/11/10 23:24:56;;;;;;;51.95;41.80;;;21.80;55.10;;;;;;5047553;55;21460;-41
2022/11/10 23:29:56;;;;;;;49.53;42.03;;;21.80;55.20;;;;;;5182061;55;21070;-41
2022/11/10 23:34:57;;;;;;;51.50;42.70;;;21.80;55.20;;;;;;4782228;55;20993;-43
2022/11/10 23:39:58;;;;;;;52.92;42.05;;;21.80;55.20;;;;;;4930133;55;21065;-42
2022/11/10 23:44:59;;;;;;;51.35;41.95;;;21.80;55.20;;;;;;4866257;55;21523;-42
2022/11/10 23:49:59;;;;;;;50.67;41.85;;;21.80;55.30;;;;;;4745406;59;21039;-46
2022/11/10 23:55:00;;;;;;;49.78;39.83;;;21.80;55.20;;;;;;4763905;55;21001;-30
